createdAt,value
2022-11-08T00:01:09.549Z,99146.72
2022-11-08T00:03:36.213Z,99163.44
2022-11-08T00:06:03.734Z,99152.31
2022-11-08T00:08:30.409Z,99153.31
2022-11-08T00:11:02.805Z,99141.38
2022-11-08T00:13:29.196Z,99144.16
2022-11-08T00:15:55.585Z,99144.63
2022-11-08T00:18:21.934Z,99154.63
2022-11-08T00:20:48.289Z,99158.44
2022-11-08T00:23:15.681Z,99149.81
2022-11-08T00:25:41.999Z,99146.47
2022-11-08T00:28:08.385Z,99142.31
2022-11-08T00:30:35.213Z,99141.78
2022-11-08T00:33:01.784Z,99137.63
2022-11-08T00:35:28.268Z,99134.44
2022-11-08T00:37:54.637Z,99133.47
2022-11-08T00:40:21.317Z,99132.94
2022-11-08T00:42:49.507Z,99131.72
2022-11-08T00:45:16.175Z,99125.31
2022-11-08T00:47:42.554Z,99131.72
2022-11-08T00:50:09.315Z,99127.38
2022-11-08T00:52:35.786Z,99117.41
2022-11-08T00:55:02.468Z,99114.63
2022-11-08T00:57:41.165Z,99112.41
2022-11-08T01:00:14.143Z,99120.50
2022-11-08T01:02:40.612Z,99118.97
2022-11-08T01:05:07.520Z,99114.69
2022-11-08T01:07:34.119Z,99116.63
2022-11-08T01:10:00.486Z,99117.75
2022-11-08T01:12:26.845Z,99116.69
2022-11-08T01:14:53.270Z,99110.03
2022-11-08T01:17:19.673Z,99115.16
2022-11-08T01:19:46.064Z,99115.44
2022-11-08T01:22:12.605Z,99108.81
2022-11-08T01:24:39.262Z,99113.25
2022-11-08T01:27:05.711Z,99112.56
2022-11-08T01:29:33.422Z,99112.03
2022-11-08T01:31:59.908Z,99104.22
2022-11-08T01:34:26.545Z,99098.41
2022-11-08T01:36:53.087Z,99095.09
2022-11-08T01:39:19.729Z,99092.59
2022-11-08T01:41:46.297Z,99086.66
2022-11-08T01:44:17.177Z,99088.13
2022-11-08T01:46:45.088Z,99085.50
2022-11-08T01:49:30.210Z,99090.13
2022-11-08T01:51:59.768Z,99083.84
2022-11-08T01:54:44.643Z,99083.16
2022-11-08T01:57:16.562Z,99065.81
2022-11-08T01:59:45.857Z,99063.59
2022-11-08T02:02:13.266Z,99062.59
2022-11-08T02:04:41.177Z,99061.78
2022-11-08T02:07:07.755Z,99060.94
2022-11-08T02:09:38.592Z,99048.72
2022-11-08T02:12:07.676Z,99041.22
2022-11-08T02:14:34.880Z,99031.78
2022-11-08T02:17:01.481Z,99033.47
2022-11-08T02:19:49.553Z,99031.13
2022-11-08T02:22:28.971Z,99034.41
2022-11-08T02:24:56.656Z,99030.94
2022-11-08T02:27:23.063Z,99025.13
2022-11-08T02:29:54.203Z,99027.06
2022-11-08T02:32:21.216Z,99018.50
2022-11-08T02:34:52.348Z,99024.72
2022-11-08T02:37:20.836Z,99022.53
2022-11-08T02:39:47.565Z,99022.69
2022-11-08T02:42:15.840Z,99009.63
2022-11-08T02:44:42.271Z,99007.16
2022-11-08T02:47:09.042Z,98998.38
2022-11-08T02:49:35.567Z,98996.72
2022-11-08T02:52:01.991Z,98992.97
2022-11-08T02:54:28.511Z,98992.44
2022-11-08T02:56:54.898Z,98982.59
2022-11-08T02:59:21.413Z,98983.69
2022-11-08T03:01:47.892Z,98995.91
2022-11-08T03:04:14.776Z,98994.53
2022-11-08T03:06:41.425Z,98989.09
2022-11-08T03:09:07.883Z,98991.78
2022-11-08T03:11:34.378Z,98982.50
2022-11-08T03:14:00.945Z,98978.72
2022-11-08T03:16:27.300Z,98984.56
2022-11-08T03:18:54.140Z,98985.84
2022-11-08T03:21:20.497Z,98986.66
2022-11-08T03:23:47.160Z,98983.66
2022-11-08T03:26:13.724Z,98988.91
2022-11-08T03:28:40.063Z,98980.47
2022-11-08T03:31:06.649Z,98994.19
2022-11-08T03:33:33.173Z,98988.50
2022-11-08T03:35:59.763Z,98991.72
2022-11-08T03:38:26.232Z,98994.53
2022-11-08T03:40:52.595Z,98986.59
2022-11-08T03:43:19.178Z,98988.66
2022-11-08T03:45:47.108Z,98987.84
2022-11-08T03:48:13.536Z,98990.63
2022-11-08T03:50:40.262Z,98992.84
2022-11-08T03:53:06.605Z,98993.56
2022-11-08T03:55:33.136Z,98996.88
2022-11-08T03:57:59.431Z,98995.41
2022-11-08T04:00:28.933Z,98995.69
2022-11-08T04:03:00.930Z,98990.41
2022-11-08T04:05:27.565Z,98977.34
2022-11-08T04:07:53.922Z,98982.78
2022-11-08T04:10:20.569Z,98980.13
2022-11-08T04:12:46.900Z,98982.34
2022-11-08T04:15:19.563Z,98988.03
2022-11-08T04:17:49.092Z,98983.16
2022-11-08T04:20:15.567Z,98964.00
2022-11-08T04:22:41.918Z,98922.38
2022-11-08T04:25:08.487Z,98891.56
2022-11-08T04:27:35.038Z,98881.53
2022-11-08T04:30:01.796Z,98877.09
2022-11-08T04:32:28.090Z,98876.97
2022-11-08T04:34:54.438Z,98882.38
2022-11-08T04:37:21.121Z,98879.31
2022-11-08T04:39:47.657Z,98873.59
2022-11-08T04:42:14.220Z,98886.78
2022-11-08T04:44:40.587Z,98871.69
2022-11-08T04:47:07.267Z,98871.81
2022-11-08T04:49:33.740Z,98872.56
2022-11-08T04:52:00.118Z,98866.47
2022-11-08T04:54:26.537Z,98869.50
2022-11-08T04:56:52.913Z,98857.44
2022-11-08T04:59:19.248Z,98850.53
2022-11-08T05:01:45.771Z,98837.75
2022-11-08T05:04:12.403Z,98842.38
2022-11-08T05:06:38.749Z,98838.19
2022-11-08T05:09:05.099Z,98837.38
2022-11-08T05:11:31.856Z,98837.22
2022-11-08T05:13:58.557Z,98828.34
2022-11-08T05:16:28.045Z,98831.41
2022-11-08T05:18:54.736Z,98815.34
2022-11-08T05:21:22.423Z,98812.72
2022-11-08T05:23:50.349Z,98809.19
2022-11-08T05:26:18.385Z,98812.66
2022-11-08T05:28:45.092Z,98804.50
2022-11-08T05:31:12.088Z,98804.50
2022-11-08T05:33:38.821Z,98813.78
2022-11-08T05:36:07.696Z,98825.31
2022-11-08T05:38:34.613Z,98821.03
2022-11-08T05:41:09.153Z,98811.84
2022-11-08T05:43:35.624Z,98820.56
2022-11-08T05:46:02.195Z,98820.72
2022-11-08T05:48:28.549Z,98816.56
2022-11-08T05:50:55.782Z,98800.06
2022-11-08T05:53:22.725Z,98799.94
2022-11-08T05:55:49.219Z,98786.19
2022-11-08T05:58:16.389Z,98798.25
2022-11-08T06:00:42.969Z,98791.31
2022-11-08T06:03:09.376Z,98801.59
2022-11-08T06:06:14.828Z,98795.91
2022-11-08T06:08:44.994Z,98803.16
2022-11-08T06:11:19.227Z,98802.31
2022-11-08T06:13:45.725Z,98792.94
2022-11-08T06:16:14.343Z,98804.00
2022-11-08T06:18:41.659Z,98800.69
2022-11-08T06:21:11.172Z,98794.28
2022-11-08T06:23:37.765Z,98803.72
2022-11-08T06:26:04.300Z,98791.22
2022-11-08T06:28:31.551Z,98798.81
2022-11-08T06:30:59.460Z,98793.72
2022-11-08T06:33:26.734Z,98794.53
2022-11-08T06:35:53.582Z,98798.00
2022-11-08T06:38:20.544Z,98800.81
2022-11-08T06:40:47.128Z,98807.59
2022-11-08T06:43:19.293Z,98811.34
2022-11-08T06:45:46.462Z,98813.97
2022-11-08T06:48:12.883Z,98810.91
2022-11-08T06:50:39.311Z,98816.00
2022-11-08T06:53:08.336Z,98830.25
2022-11-08T06:55:35.623Z,98830.03
2022-11-08T06:58:02.992Z,98829.69
2022-11-08T07:00:29.403Z,98836.97
2022-11-08T07:02:58.199Z,98851.09
2022-11-08T07:05:26.399Z,98867.88
2022-11-08T07:07:53.106Z,98897.22
2022-11-08T07:10:21.574Z,98914.50
2022-11-08T07:12:48.623Z,98930.72
2022-11-08T07:15:15.370Z,98932.53
2022-11-08T07:17:41.971Z,98947.84
2022-11-08T07:20:09.103Z,98956.38
2022-11-08T07:22:35.637Z,98951.94
2022-11-08T07:25:02.143Z,98958.19
2022-11-08T07:27:28.636Z,98973.88
2022-11-08T07:29:54.975Z,98981.31
2022-11-08T07:32:21.491Z,98985.31
2022-11-08T07:34:47.899Z,99005.63
2022-11-08T07:37:14.268Z,99022.09
2022-11-08T07:39:40.595Z,98989.09
2022-11-08T07:42:07.058Z,98982.50
2022-11-08T07:44:33.698Z,98960.28
2022-11-08T07:47:00.300Z,98939.22
2022-11-08T07:49:26.778Z,98620.63
2022-11-08T07:51:53.235Z,98616.31
2022-11-08T07:54:19.882Z,98615.34
2022-11-08T07:56:46.420Z,98618.97
2022-11-08T07:59:13.079Z,98618.47
2022-11-08T08:01:39.773Z,98617.13
2022-11-08T08:04:06.332Z,98604.41
2022-11-08T08:06:32.772Z,98588.03
2022-11-08T08:08:59.385Z,98575.00
2022-11-08T08:11:30.828Z,98561.06
2022-11-08T08:13:59.741Z,98547.63
2022-11-08T08:16:26.161Z,98525.63
2022-11-08T08:18:56.463Z,98513.53
2022-11-08T08:21:23.708Z,98504.94
2022-11-08T08:23:50.186Z,98516.16
2022-11-08T08:26:16.756Z,98525.97
2022-11-08T08:28:43.172Z,98533.50
2022-11-08T08:31:09.762Z,98532.97
2022-11-08T08:33:36.527Z,98529.56
2022-11-08T08:36:03.854Z,98538.06
2022-11-08T08:38:31.845Z,98549.41
2022-11-08T08:40:58.448Z,98567.66
2022-11-08T08:43:24.999Z,98571.63
2022-11-08T08:45:51.495Z,98577.22
2022-11-08T08:48:17.799Z,98576.31
2022-11-08T08:50:44.694Z,98565.00
2022-11-08T08:53:11.412Z,98567.19
2022-11-08T08:55:39.692Z,98578.25
2022-11-08T08:58:06.123Z,98558.34
2022-11-08T09:03:20.373Z,98547.59
2022-11-08T09:05:47.290Z,98547.28
2022-11-08T09:08:14.533Z,98551.78
2022-11-08T09:10:41.473Z,98546.16
2022-11-08T09:13:07.942Z,98555.94
2022-11-08T09:15:34.448Z,98569.59
2022-11-08T09:18:01.176Z,98560.22
2022-11-08T09:20:27.693Z,98557.97
2022-11-08T09:22:54.533Z,98557.91
2022-11-08T09:25:20.988Z,98573.31
2022-11-08T09:27:47.356Z,98567.38
2022-11-08T09:30:13.935Z,98572.72
2022-11-08T09:32:59.831Z,98558.84
2022-11-08T09:35:26.673Z,98563.06
2022-11-08T09:37:54.467Z,98560.75
2022-11-08T09:40:27.739Z,98568.38
2022-11-08T09:43:20.393Z,98559.47
2022-11-08T09:45:49.010Z,98569.44
2022-11-08T09:48:28.119Z,98571.13
2022-11-08T09:50:57.311Z,98565.53
2022-11-08T09:53:39.791Z,98561.22
2022-11-08T09:56:21.326Z,98566.28
2022-11-08T09:58:51.088Z,98578.59
2022-11-08T10:01:17.718Z,98562.88
2022-11-08T10:03:48.952Z,98561.81
2022-11-08T10:06:30.621Z,98554.59
2022-11-08T10:09:21.387Z,98548.59
2022-11-08T10:12:11.610Z,98552.69
2022-11-08T10:15:11.768Z,98560.88
2022-11-08T10:17:44.177Z,98557.19
2022-11-08T10:20:13.779Z,98545.22
2022-11-08T10:22:58.192Z,98544.28
2022-11-08T10:25:33.107Z,98543.25
2022-11-08T10:28:02.185Z,98545.75
2022-11-08T10:30:51.164Z,98541.03
2022-11-08T10:33:23.555Z,98535.69
2022-11-08T10:36:12.773Z,98538.34
2022-11-08T10:38:54.172Z,98536.28
2022-11-08T10:41:42.808Z,98535.81
2022-11-08T10:44:16.619Z,98528.84
2022-11-08T10:46:50.146Z,98530.88
2022-11-08T10:49:37.251Z,98521.63
2022-11-08T10:52:12.851Z,98520.63
2022-11-08T10:54:51.095Z,98525.75
2022-11-08T10:57:29.661Z,98526.00
2022-11-08T10:59:57.481Z,98521.50
2022-11-08T11:02:25.884Z,98514.31
2022-11-08T11:04:54.467Z,98516.91
2022-11-08T11:07:41.580Z,98522.59
2022-11-08T11:10:38.945Z,98510.09
2022-11-08T11:13:14.569Z,98509.56
2022-11-08T11:15:58.539Z,98515.16
2022-11-08T11:18:49.639Z,98496.22
2022-11-08T11:21:16.173Z,98499.75
2022-11-08T11:23:54.609Z,98488.41
2022-11-08T11:26:27.286Z,98495.22
2022-11-08T11:29:05.954Z,98500.53
2022-11-08T11:31:32.394Z,98487.41
2022-11-08T11:33:59.816Z,98490.44
2022-11-08T11:36:30.097Z,98492.69
2022-11-08T11:39:06.761Z,98484.06
2022-11-08T11:42:08.709Z,98483.06
2022-11-08T11:45:06.360Z,98495.97
2022-11-08T11:47:44.529Z,98479.03
2022-11-08T11:50:27.909Z,98473.75
2022-11-08T11:52:59.963Z,98470.25
2022-11-08T11:56:03.608Z,98474.84
2022-11-08T11:58:48.904Z,98466.91
2022-11-08T12:01:36.493Z,98472.06
2022-11-08T12:04:40.643Z,98472.06
2022-11-08T12:07:25.041Z,98466.09
2022-11-08T12:10:18.350Z,98458.09
2022-11-08T12:12:58.671Z,98452.72
2022-11-08T12:15:34.776Z,98453.75
2022-11-08T12:18:36.974Z,98457.50
2022-11-08T12:21:13.896Z,98462.28
2022-11-08T12:23:49.059Z,98462.66
2022-11-08T12:26:26.569Z,98458.97
2022-11-08T12:29:12.082Z,98463.75
2022-11-08T12:32:07.740Z,98463.69
2022-11-08T12:35:01.652Z,98461.53
2022-11-08T12:37:49.893Z,98454.88
2022-11-08T12:40:25.338Z,98454.25
2022-11-08T12:43:29.748Z,98446.22
2022-11-08T12:46:06.184Z,98446.91
2022-11-08T12:48:50.847Z,98437.69
2022-11-08T12:51:35.631Z,98437.72
2022-11-08T12:54:43.771Z,98442.03
2022-11-08T12:57:14.167Z,98438.06
2022-11-08T12:59:44.767Z,98430.13
2022-11-08T13:02:35.765Z,98432.56
2022-11-08T13:05:21.906Z,98434.59
2022-11-08T13:08:00.106Z,98430.19
2022-11-08T13:10:45.872Z,98433.34
2022-11-08T13:13:12.384Z,98428.88
2022-11-08T13:16:09.238Z,98425.88
2022-11-08T13:18:43.812Z,98420.50
2022-11-08T13:21:28.480Z,98416.31
2022-11-08T13:24:42.827Z,98421.22
2022-11-08T13:27:41.840Z,98420.28
2022-11-08T13:30:11.317Z,98411.50
2022-11-08T13:32:43.774Z,98412.22
2022-11-08T13:35:25.540Z,98398.19
2022-11-08T13:38:13.318Z,98394.66
2022-11-08T13:40:45.800Z,98395.13
2022-11-08T13:43:30.643Z,98397.94
2022-11-08T13:46:22.795Z,98400.41
2022-11-08T13:48:58.420Z,98393.97
2022-11-08T13:51:31.903Z,98391.16
2022-11-08T13:54:25.376Z,98399.00
2022-11-08T13:56:53.932Z,98396.28
2022-11-08T13:59:29.320Z,98401.31
2022-11-08T14:01:58.837Z,98395.47
2022-11-08T14:04:31.726Z,98398.06
2022-11-08T14:07:09.605Z,98388.72
2022-11-08T14:09:58.829Z,98389.63
2022-11-08T14:12:37.228Z,98387.16
2022-11-08T14:15:29.767Z,98383.78
2022-11-08T14:18:04.602Z,98384.56
2022-11-08T14:20:39.089Z,98388.88
2022-11-08T14:23:21.012Z,98391.16
2022-11-08T14:26:14.406Z,98396.13
2022-11-08T14:28:44.917Z,98394.47
2022-11-08T14:31:24.916Z,98385.84
2022-11-08T14:33:51.362Z,98385.63
2022-11-08T14:36:19.465Z,98391.94
2022-11-08T14:38:53.087Z,98388.69
2022-11-08T14:41:25.841Z,98387.56
2022-11-08T14:43:54.110Z,98388.28
2022-11-08T14:46:20.434Z,98396.34
2022-11-08T14:48:52.173Z,98391.31
2022-11-08T14:51:18.799Z,98390.94
2022-11-08T14:53:50.324Z,98386.00
2022-11-08T14:56:25.905Z,98390.53
2022-11-08T14:58:53.990Z,98391.53
2022-11-08T15:01:26.049Z,98384.38
2022-11-08T15:04:02.729Z,98380.13
2022-11-08T15:06:34.009Z,98378.34
2022-11-08T15:09:01.580Z,98380.53
2022-11-08T15:11:31.671Z,98381.66
2022-11-08T15:14:05.474Z,98373.19
2022-11-08T15:16:39.168Z,98386.44
2022-11-08T15:19:27.220Z,98371.31
2022-11-08T15:21:53.701Z,98375.56
2022-11-08T15:24:38.007Z,98373.22
2022-11-08T15:27:10.140Z,98377.31
2022-11-08T15:29:51.754Z,98374.34
2022-11-08T15:32:20.482Z,98375.63
2022-11-08T15:34:47.811Z,98375.50
2022-11-08T15:37:37.640Z,98380.06
2022-11-08T15:40:17.484Z,98373.13
2022-11-08T15:42:46.004Z,98385.78
2022-11-08T15:45:12.519Z,98378.56
2022-11-08T15:47:41.616Z,98384.38
2022-11-08T15:50:29.162Z,98379.69
2022-11-08T15:53:01.144Z,98369.88
2022-11-08T15:55:53.339Z,98388.50
2022-11-08T15:58:31.501Z,98385.25
2022-11-08T16:00:59.981Z,98386.34
2022-11-08T16:03:26.462Z,98390.31
2022-11-08T16:05:52.926Z,98389.94
2022-11-08T16:08:21.127Z,98402.25
2022-11-08T16:11:14.059Z,98401.88
2022-11-08T16:13:40.824Z,98395.72
2022-11-08T16:16:12.660Z,98398.84
2022-11-08T16:18:40.049Z,98404.81
2022-11-08T16:21:06.710Z,98402.97
2022-11-08T16:23:33.038Z,98401.53
2022-11-08T16:25:59.505Z,98399.03
2022-11-08T16:28:35.312Z,98403.56
2022-11-08T16:31:03.901Z,98409.91
2022-11-08T16:33:32.150Z,98409.72
2022-11-08T16:36:02.050Z,98415.06
2022-11-08T16:38:36.685Z,98406.84
2022-11-08T16:41:05.066Z,98408.47
2022-11-08T16:43:32.043Z,98408.88
2022-11-08T16:46:06.323Z,98417.31
2022-11-08T16:48:34.470Z,98415.66
2022-11-08T16:51:03.939Z,98429.19
2022-11-08T16:53:30.665Z,98431.03
2022-11-08T16:55:57.332Z,98432.66
2022-11-08T16:58:24.767Z,98427.97
2022-11-08T17:00:51.326Z,98421.56
2022-11-08T17:03:23.845Z,98418.28
2022-11-08T17:05:51.127Z,98420.34
2022-11-08T17:08:17.955Z,98417.69
2022-11-08T17:10:44.916Z,98412.13
2022-11-08T17:13:16.297Z,98420.75
2022-11-08T17:15:42.745Z,98415.44
2022-11-08T17:18:12.822Z,98415.59
2022-11-08T17:20:39.443Z,98414.16
2022-11-08T17:23:06.423Z,98416.00
2022-11-08T17:25:36.635Z,98421.34
2022-11-08T17:28:03.704Z,98426.50
2022-11-08T17:30:30.326Z,98421.16
2022-11-08T17:32:56.654Z,98427.94
2022-11-08T17:35:23.028Z,98429.97
2022-11-08T17:37:49.588Z,98431.19
2022-11-08T17:40:16.093Z,98435.06
2022-11-08T17:42:42.670Z,98428.91
2022-11-08T17:45:10.534Z,98427.69
2022-11-08T17:47:37.496Z,98430.78
2022-11-08T17:50:05.373Z,98440.00
2022-11-08T17:52:33.105Z,98451.47
2022-11-08T17:54:59.493Z,98438.75
2022-11-08T17:57:25.944Z,98447.16
2022-11-08T17:59:52.401Z,98445.50
2022-11-08T18:02:19.229Z,98442.22
2022-11-08T18:04:45.852Z,98437.88
2022-11-08T18:07:12.351Z,98432.13
2022-11-08T18:09:38.838Z,98445.88
2022-11-08T18:12:05.673Z,98444.00
2022-11-08T18:14:32.326Z,98439.44
2022-11-08T18:16:58.778Z,98435.13
2022-11-08T18:19:25.383Z,98438.19
2022-11-08T18:21:51.762Z,98434.88
2022-11-08T18:24:18.316Z,98435.28
2022-11-08T18:26:44.830Z,98425.44
2022-11-08T18:29:11.430Z,98434.03
2022-11-08T18:31:37.823Z,98419.66
2022-11-08T18:34:04.550Z,98424.13
2022-11-08T18:36:31.581Z,98426.56
2022-11-08T18:39:01.432Z,98423.06
2022-11-08T18:41:31.153Z,98436.16
2022-11-08T18:43:59.275Z,98430.41
2022-11-08T18:46:28.490Z,98425.66
2022-11-08T18:48:55.119Z,98426.88
2022-11-08T18:51:22.604Z,98430.56
2022-11-08T18:53:48.993Z,98435.88
2022-11-08T18:56:15.730Z,98443.47
2022-11-08T18:58:43.460Z,98437.88
2022-11-08T19:01:10.141Z,98440.25
2022-11-08T19:03:36.969Z,98436.53
2022-11-08T19:06:03.605Z,98447.94
2022-11-08T19:08:32.228Z,98451.00
2022-11-08T19:11:00.053Z,98454.25
2022-11-08T19:13:28.472Z,98460.53
2022-11-08T19:16:00.332Z,98459.25
2022-11-08T19:18:27.940Z,98464.16
2022-11-08T19:20:56.046Z,98453.06
2022-11-08T19:23:22.769Z,98448.13
2022-11-08T19:26:06.165Z,98456.09
2022-11-08T19:28:36.291Z,98453.00
2022-11-08T19:31:03.309Z,98460.78
2022-11-08T19:33:31.010Z,98462.25
2022-11-08T19:36:03.340Z,98457.56
2022-11-08T19:38:32.199Z,98453.88
2022-11-08T19:41:01.366Z,98445.09
2022-11-08T19:43:27.886Z,98449.38
2022-11-08T19:45:54.282Z,98453.06
2022-11-08T19:48:21.558Z,98443.66
2022-11-08T19:50:48.147Z,98453.75
2022-11-08T19:53:14.789Z,98449.44
2022-11-08T19:55:41.328Z,98455.41
2022-11-08T19:58:07.723Z,98458.88
2022-11-08T20:00:36.565Z,98442.47
2022-11-08T20:03:03.049Z,98444.50
2022-11-08T20:05:29.382Z,98445.13
2022-11-08T20:07:56.022Z,98456.22
2022-11-08T20:10:22.407Z,98456.03
2022-11-08T20:12:49.080Z,98453.75
2022-11-08T20:15:15.513Z,98457.41
2022-11-08T20:17:42.069Z,98453.31
2022-11-08T20:20:09.013Z,98455.59
2022-11-08T20:22:35.433Z,98459.09
2022-11-08T20:25:02.122Z,98457.69
2022-11-08T20:27:28.661Z,98469.56
2022-11-08T20:29:55.190Z,98471.81
2022-11-08T20:32:21.586Z,98478.72
2022-11-08T20:34:47.995Z,98474.63
2022-11-08T20:37:14.409Z,98473.97
2022-11-08T20:39:40.904Z,98470.28
2022-11-08T20:42:08.709Z,98466.81
2022-11-08T20:44:35.136Z,98473.16
2022-11-08T20:47:06.217Z,98475.00
2022-11-08T20:49:33.295Z,98480.09
2022-11-08T20:51:59.935Z,98495.44
2022-11-08T20:54:26.523Z,98483.81
2022-11-08T20:56:52.884Z,98487.06
2022-11-08T20:59:19.298Z,98480.56
2022-11-08T21:01:45.769Z,98482.22
2022-11-08T21:04:12.446Z,98479.28
2022-11-08T21:06:39.137Z,98471.69
2022-11-08T21:09:31.364Z,98478.03
2022-11-08T21:11:53.823Z,98467.78
2022-11-08T21:14:20.509Z,98468.16
2022-11-08T21:17:15.125Z,98467.69
2022-11-08T21:19:34.249Z,98470.13
2022-11-08T21:22:00.638Z,98463.91
2022-11-08T21:24:27.157Z,98475.75
2022-11-08T21:26:53.612Z,98467.13
2022-11-08T21:29:20.006Z,98460.53
2022-11-08T21:31:46.314Z,98462.94
2022-11-08T21:34:13.112Z,98455.34
2022-11-08T21:36:39.782Z,98459.19
2022-11-08T21:39:06.106Z,98460.22
2022-11-08T21:41:32.535Z,98462.06
2022-11-08T21:43:59.003Z,98467.97
2022-11-08T21:46:26.545Z,98468.19
2022-11-08T21:48:55.056Z,98455.91
2022-11-08T21:51:22.290Z,98456.91
2022-11-08T21:53:56.542Z,98450.97
2022-11-08T21:56:24.542Z,98455.84
2022-11-08T21:58:51.296Z,98454.00
2022-11-08T22:01:17.872Z,98465.47
2022-11-08T22:03:44.884Z,98464.63
2022-11-08T22:06:11.487Z,98468.13
2022-11-08T22:08:38.353Z,98471.16
2022-11-08T22:11:05.170Z,98464.81
2022-11-08T22:13:31.583Z,98464.19
2022-11-08T22:15:58.006Z,98474.63
2022-11-08T22:18:36.970Z,98467.66
2022-11-08T22:21:11.016Z,98466.84
2022-11-08T22:23:37.499Z,98468.03
2022-11-08T22:26:04.235Z,98460.88
2022-11-08T22:28:30.694Z,98477.50
2022-11-08T22:30:57.402Z,98477.28
2022-11-08T22:33:23.995Z,98480.31
2022-11-08T22:35:50.569Z,98483.94
2022-11-08T22:38:17.727Z,98481.63
2022-11-08T22:40:45.878Z,98479.16
2022-11-08T22:43:12.855Z,98494.66
2022-11-08T22:45:40.465Z,98496.88
2022-11-08T22:48:07.534Z,98496.88
2022-11-08T22:50:34.080Z,98489.72
2022-11-08T22:53:00.919Z,98487.41
2022-11-08T22:55:27.450Z,98500.06
2022-11-08T22:57:54.086Z,98490.44
2022-11-08T23:00:20.843Z,98482.47
2022-11-08T23:02:47.777Z,98495.75
2022-11-08T23:05:14.707Z,98487.13
2022-11-08T23:07:41.332Z,98488.00
2022-11-08T23:10:08.154Z,98480.84
2022-11-08T23:12:34.560Z,98484.97
2022-11-08T23:15:00.916Z,98485.41
2022-11-08T23:17:27.326Z,98481.91
2022-11-08T23:19:53.799Z,98473.09
2022-11-08T23:22:21.586Z,98469.63
2022-11-08T23:24:47.935Z,98461.41
2022-11-08T23:27:16.573Z,98461.59
2022-11-08T23:29:43.113Z,98467.91
2022-11-08T23:32:09.780Z,98463.13
2022-11-08T23:34:37.423Z,98464.16
2022-11-08T23:37:03.786Z,98464.09
2022-11-08T23:39:30.200Z,98465.56
2022-11-08T23:41:56.837Z,98464.16
2022-11-08T23:44:23.124Z,98466.63
2022-11-08T23:46:50.931Z,98468.00
2022-11-08T23:49:17.415Z,98466.38
2022-11-08T23:51:43.875Z,98463.44
2022-11-08T23:54:10.446Z,98472.59
2022-11-08T23:56:36.972Z,98471.13
2022-11-08T23:59:03.714Z,98475.44
